sensor_id;sensor_type;location;lat;lon;timestamp;P1;durP1;ratioP1;P2;durP2;ratioP2
76202;SDS011;64985;46.364;17.008;2023-03-03T00:00:30;108.18;;;47.35;;
76202;SDS011;64985;46.364;17.008;2023-03-03T00:03:32;117.05;;;49.80;;
76202;SDS011;64985;46.364;17.008;2023-03-03T00:06:35;110.20;;;48.63;;
76202;SDS011;64985;46.364;17.008;2023-03-03T00:09:37;109.82;;;47.55;;
76202;SDS011;64985;46.364;17.008;2023-03-03T00:12:48;109.32;;;47.83;;
76202;SDS011;64985;46.364;17.008;2023-03-03T00:15:51;103.47;;;46.58;;
76202;SDS011;64985;46.364;17.008;2023-03-03T00:18:55;105.68;;;46.78;;
76202;SDS011;64985;46.364;17.008;2023-03-03T00:21:57;107.40;;;47.40;;
76202;SDS011;64985;46.364;17.008;2023-03-03T00:28:28;100.28;;;45.25;;
76202;SDS011;64985;46.364;17.008;2023-03-03T00:31:32;100.13;;;46.88;;
76202;SDS011;64985;46.364;17.008;2023-03-03T00:34:36;106.13;;;46.70;;
76202;SDS011;64985;46.364;17.008;2023-03-03T00:37:38;105.72;;;47.33;;
76202;SDS011;64985;46.364;17.008;2023-03-03T00:40:41;102.60;;;46.15;;
76202;SDS011;64985;46.364;17.008;2023-03-03T00:43:44;100.40;;;46.85;;
76202;SDS011;64985;46.364;17.008;2023-03-03T00:46:46;96.68;;;46.15;;
76202;SDS011;64985;46.364;17.008;2023-03-03T00:49:48;100.28;;;45.80;;
76202;SDS011;64985;46.364;17.008;2023-03-03T00:52:52;99.93;;;46.10;;
76202;SDS011;64985;46.364;17.008;2023-03-03T00:55:58;107.57;;;47.30;;
76202;SDS011;64985;46.364;17.008;2023-03-03T00:59:00;103.32;;;47.83;;
76202;SDS011;64985;46.364;17.008;2023-03-03T01:02:02;106.55;;;48.28;;
76202;SDS011;64985;46.364;17.008;2023-03-03T01:05:05;114.60;;;48.92;;
76202;SDS011;64985;46.364;17.008;2023-03-03T01:08:08;121.07;;;51.70;;
76202;SDS011;64985;46.364;17.008;2023-03-03T01:14:14;139.90;;;56.83;;
76202;SDS011;64985;46.364;17.008;2023-03-03T01:17:16;121.90;;;53.42;;
76202;SDS011;64985;46.364;17.008;2023-03-03T01:20:19;123.90;;;52.88;;
76202;SDS011;64985;46.364;17.008;2023-03-03T01:23:21;121.00;;;52.33;;
76202;SDS011;64985;46.364;17.008;2023-03-03T01:26:23;119.88;;;52.42;;
76202;SDS011;64985;46.364;17.008;2023-03-03T01:29:25;122.28;;;53.38;;
76202;SDS011;64985;46.364;17.008;2023-03-03T01:32:27;129.45;;;54.55;;
76202;SDS011;64985;46.364;17.008;2023-03-03T01:35:30;123.13;;;52.95;;
76202;SDS011;64985;46.364;17.008;2023-03-03T01:38:35;120.13;;;51.03;;
76202;SDS011;64985;46.364;17.008;2023-03-03T01:41:38;114.68;;;50.58;;
76202;SDS011;64985;46.364;17.008;2023-03-03T01:44:40;116.88;;;50.10;;
76202;SDS011;64985;46.364;17.008;2023-03-03T01:47:46;105.15;;;47.58;;
76202;SDS011;64985;46.364;17.008;2023-03-03T01:51:23;107.38;;;48.33;;
76202;SDS011;64985;46.364;17.008;2023-03-03T01:54:41;116.32;;;49.05;;
76202;SDS011;64985;46.364;17.008;2023-03-03T01:57:49;106.88;;;48.95;;
76202;SDS011;64985;46.364;17.008;2023-03-03T02:01:01;125.50;;;50.80;;
76202;SDS011;64985;46.364;17.008;2023-03-03T02:04:07;101.93;;;47.42;;
76202;SDS011;64985;46.364;17.008;2023-03-03T02:07:10;108.95;;;48.15;;
76202;SDS011;64985;46.364;17.008;2023-03-03T02:10:16;111.20;;;49.47;;
76202;SDS011;64985;46.364;17.008;2023-03-03T02:13:20;112.57;;;49.60;;
76202;SDS011;64985;46.364;17.008;2023-03-03T02:16:22;115.28;;;50.50;;
76202;SDS011;64985;46.364;17.008;2023-03-03T02:29:13;120.80;;;50.47;;
76202;SDS011;64985;46.364;17.008;2023-03-03T02:32:16;119.07;;;50.88;;
76202;SDS011;64985;46.364;17.008;2023-03-03T02:35:28;119.63;;;50.92;;
76202;SDS011;64985;46.364;17.008;2023-03-03T02:38:36;115.30;;;49.63;;
76202;SDS011;64985;46.364;17.008;2023-03-03T02:45:08;139.93;;;51.33;;
76202;SDS011;64985;46.364;17.008;2023-03-03T02:48:10;137.98;;;51.30;;
76202;SDS011;64985;46.364;17.008;2023-03-03T02:51:13;141.35;;;52.65;;
76202;SDS011;64985;46.364;17.008;2023-03-03T02:54:16;137.48;;;51.67;;
76202;SDS011;64985;46.364;17.008;2023-03-03T02:57:19;146.82;;;52.53;;
76202;SDS011;64985;46.364;17.008;2023-03-03T03:00:21;152.80;;;54.15;;
76202;SDS011;64985;46.364;17.008;2023-03-03T03:03:23;166.32;;;53.42;;
76202;SDS011;64985;46.364;17.008;2023-03-03T03:06:26;124.90;;;49.22;;
76202;SDS011;64985;46.364;17.008;2023-03-03T03:09:28;141.32;;;54.90;;
76202;SDS011;64985;46.364;17.008;2023-03-03T03:12:30;137.25;;;55.20;;
76202;SDS011;64985;46.364;17.008;2023-03-03T03:15:34;124.35;;;52.47;;
76202;SDS011;64985;46.364;17.008;2023-03-03T03:18:37;130.18;;;50.65;;
76202;SDS011;64985;46.364;17.008;2023-03-03T03:21:39;142.25;;;51.78;;
76202;SDS011;64985;46.364;17.008;2023-03-03T03:24:41;127.28;;;50.92;;
76202;SDS011;64985;46.364;17.008;2023-03-03T03:27:43;119.28;;;49.72;;
76202;SDS011;64985;46.364;17.008;2023-03-03T03:30:45;131.10;;;51.17;;
76202;SDS011;64985;46.364;17.008;2023-03-03T03:33:48;126.63;;;49.10;;
76202;SDS011;64985;46.364;17.008;2023-03-03T03:36:50;114.32;;;48.20;;
76202;SDS011;64985;46.364;17.008;2023-03-03T03:39:52;101.10;;;45.28;;
76202;SDS011;64985;46.364;17.008;2023-03-03T03:42:54;109.75;;;48.17;;
76202;SDS011;64985;46.364;17.008;2023-03-03T03:45:57;126.75;;;50.22;;
76202;SDS011;64985;46.364;17.008;2023-03-03T03:48:59;149.70;;;53.05;;
76202;SDS011;64985;46.364;17.008;2023-03-03T03:52:02;150.98;;;53.65;;
76202;SDS011;64985;46.364;17.008;2023-03-03T03:55:04;179.65;;;54.78;;
76202;SDS011;64985;46.364;17.008;2023-03-03T03:58:07;191.27;;;57.53;;
76202;SDS011;64985;46.364;17.008;2023-03-03T04:01:09;196.40;;;54.40;;
76202;SDS011;64985;46.364;17.008;2023-03-03T04:04:11;241.65;;;58.03;;
76202;SDS011;64985;46.364;17.008;2023-03-03T04:07:14;215.35;;;59.25;;
76202;SDS011;64985;46.364;17.008;2023-03-03T04:10:16;222.38;;;57.25;;
76202;SDS011;64985;46.364;17.008;2023-03-03T04:13:18;198.77;;;59.92;;
76202;SDS011;64985;46.364;17.008;2023-03-03T04:16:21;177.88;;;56.85;;
76202;SDS011;64985;46.364;17.008;2023-03-03T04:19:23;185.70;;;58.95;;
76202;SDS011;64985;46.364;17.008;2023-03-03T04:22:26;227.15;;;57.72;;
76202;SDS011;64985;46.364;17.008;2023-03-03T04:25:28;238.10;;;56.53;;
76202;SDS011;64985;46.364;17.008;2023-03-03T04:28:30;299.40;;;58.95;;
76202;SDS011;64985;46.364;17.008;2023-03-03T04:31:32;264.25;;;57.42;;
76202;SDS011;64985;46.364;17.008;2023-03-03T04:34:35;246.68;;;56.35;;
76202;SDS011;64985;46.364;17.008;2023-03-03T04:37:37;229.50;;;55.22;;
76202;SDS011;64985;46.364;17.008;2023-03-03T04:40:40;173.38;;;56.47;;
76202;SDS011;64985;46.364;17.008;2023-03-03T04:43:42;190.68;;;55.88;;
76202;SDS011;64985;46.364;17.008;2023-03-03T04:46:44;267.33;;;58.53;;
76202;SDS011;64985;46.364;17.008;2023-03-03T04:49:46;277.17;;;58.50;;
76202;SDS011;64985;46.364;17.008;2023-03-03T04:52:49;254.45;;;59.17;;
76202;SDS011;64985;46.364;17.008;2023-03-03T04:55:51;246.27;;;57.67;;
76202;SDS011;64985;46.364;17.008;2023-03-03T04:58:54;253.95;;;59.90;;
76202;SDS011;64985;46.364;17.008;2023-03-03T05:01:57;274.95;;;60.92;;
76202;SDS011;64985;46.364;17.008;2023-03-03T05:04:59;285.65;;;61.15;;
76202;SDS011;64985;46.364;17.008;2023-03-03T05:08:01;277.10;;;60.03;;
76202;SDS011;64985;46.364;17.008;2023-03-03T05:11:03;271.70;;;59.55;;
76202;SDS011;64985;46.364;17.008;2023-03-03T05:14:06;246.20;;;56.20;;
76202;SDS011;64985;46.364;17.008;2023-03-03T05:17:08;230.68;;;59.50;;
76202;SDS011;64985;46.364;17.008;2023-03-03T05:20:11;235.52;;;57.58;;
76202;SDS011;64985;46.364;17.008;2023-03-03T05:23:14;243.02;;;58.85;;
76202;SDS011;64985;46.364;17.008;2023-03-03T05:26:16;253.68;;;59.50;;
76202;SDS011;64985;46.364;17.008;2023-03-03T05:29:18;222.57;;;59.17;;
76202;SDS011;64985;46.364;17.008;2023-03-03T05:32:20;225.10;;;59.35;;
76202;SDS011;64985;46.364;17.008;2023-03-03T05:35:22;220.65;;;59.42;;
76202;SDS011;64985;46.364;17.008;2023-03-03T05:38:25;186.70;;;54.92;;
76202;SDS011;64985;46.364;17.008;2023-03-03T05:41:27;197.93;;;57.22;;
76202;SDS011;64985;46.364;17.008;2023-03-03T05:44:29;176.82;;;55.92;;
76202;SDS011;64985;46.364;17.008;2023-03-03T05:47:31;169.68;;;57.60;;
76202;SDS011;64985;46.364;17.008;2023-03-03T05:50:33;187.50;;;57.15;;
76202;SDS011;64985;46.364;17.008;2023-03-03T05:53:37;186.15;;;58.08;;
76202;SDS011;64985;46.364;17.008;2023-03-03T05:56:39;168.88;;;55.35;;
76202;SDS011;64985;46.364;17.008;2023-03-03T05:59:42;163.20;;;59.15;;
76202;SDS011;64985;46.364;17.008;2023-03-03T06:02:44;175.55;;;57.80;;
76202;SDS011;64985;46.364;17.008;2023-03-03T06:05:46;167.98;;;59.95;;
76202;SDS011;64985;46.364;17.008;2023-03-03T06:08:48;170.77;;;60.60;;
76202;SDS011;64985;46.364;17.008;2023-03-03T06:11:51;163.45;;;59.80;;
76202;SDS011;64985;46.364;17.008;2023-03-03T06:14:53;169.55;;;62.60;;
76202;SDS011;64985;46.364;17.008;2023-03-03T06:17:56;185.57;;;71.10;;
76202;SDS011;64985;46.364;17.008;2023-03-03T06:20:58;164.02;;;58.00;;
76202;SDS011;64985;46.364;17.008;2023-03-03T06:24:00;151.38;;;57.85;;
76202;SDS011;64985;46.364;17.008;2023-03-03T06:27:02;165.38;;;57.65;;
76202;SDS011;64985;46.364;17.008;2023-03-03T06:30:04;163.02;;;57.55;;
76202;SDS011;64985;46.364;17.008;2023-03-03T06:33:07;165.73;;;57.20;;
76202;SDS011;64985;46.364;17.008;2023-03-03T06:36:09;151.63;;;56.70;;
76202;SDS011;64985;46.364;17.008;2023-03-03T06:39:11;196.60;;;76.13;;
76202;SDS011;64985;46.364;17.008;2023-03-03T06:42:13;176.32;;;62.85;;
76202;SDS011;64985;46.364;17.008;2023-03-03T06:45:15;168.50;;;62.88;;
76202;SDS011;64985;46.364;17.008;2023-03-03T06:48:18;168.98;;;60.25;;
76202;SDS011;64985;46.364;17.008;2023-03-03T06:54:29;170.48;;;60.58;;
76202;SDS011;64985;46.364;17.008;2023-03-03T06:57:32;176.50;;;60.47;;
76202;SDS011;64985;46.364;17.008;2023-03-03T07:00:35;183.65;;;63.17;;
76202;SDS011;64985;46.364;17.008;2023-03-03T07:03:37;168.27;;;62.08;;
76202;SDS011;64985;46.364;17.008;2023-03-03T07:06:39;172.50;;;62.05;;
76202;SDS011;64985;46.364;17.008;2023-03-03T07:09:43;160.45;;;60.35;;
76202;SDS011;64985;46.364;17.008;2023-03-03T07:12:46;161.13;;;61.50;;
76202;SDS011;64985;46.364;17.008;2023-03-03T07:15:49;156.95;;;59.88;;
76202;SDS011;64985;46.364;17.008;2023-03-03T07:18:54;147.43;;;58.75;;
76202;SDS011;64985;46.364;17.008;2023-03-03T07:22:10;150.00;;;59.05;;
76202;SDS011;64985;46.364;17.008;2023-03-03T07:25:26;157.27;;;59.30;;
76202;SDS011;64985;46.364;17.008;2023-03-03T07:28:41;139.75;;;56.92;;
76202;SDS011;64985;46.364;17.008;2023-03-03T07:31:46;140.73;;;55.58;;
76202;SDS011;64985;46.364;17.008;2023-03-03T07:34:49;137.57;;;56.03;;
76202;SDS011;64985;46.364;17.008;2023-03-03T07:37:54;129.02;;;55.38;;
76202;SDS011;64985;46.364;17.008;2023-03-03T07:40:57;123.80;;;54.38;;
76202;SDS011;64985;46.364;17.008;2023-03-03T07:44:06;122.53;;;53.65;;
76202;SDS011;64985;46.364;17.008;2023-03-03T07:47:23;119.45;;;52.05;;
76202;SDS011;64985;46.364;17.008;2023-03-03T07:50:27;114.50;;;50.78;;
76202;SDS011;64985;46.364;17.008;2023-03-03T07:53:30;116.63;;;50.38;;
76202;SDS011;64985;46.364;17.008;2023-03-03T07:56:38;107.88;;;48.47;;
76202;SDS011;64985;46.364;17.008;2023-03-03T07:59:44;105.13;;;47.88;;
76202;SDS011;64985;46.364;17.008;2023-03-03T08:02:56;109.43;;;49.35;;
76202;SDS011;64985;46.364;17.008;2023-03-03T08:06:06;99.45;;;46.28;;
76202;SDS011;64985;46.364;17.008;2023-03-03T08:09:34;103.40;;;46.53;;
76202;SDS011;64985;46.364;17.008;2023-03-03T08:12:40;106.57;;;48.27;;
76202;SDS011;64985;46.364;17.008;2023-03-03T08:15:43;95.07;;;44.58;;
76202;SDS011;64985;46.364;17.008;2023-03-03T08:18:50;93.18;;;43.95;;
76202;SDS011;64985;46.364;17.008;2023-03-03T08:22:16;91.35;;;42.40;;
76202;SDS011;64985;46.364;17.008;2023-03-03T08:25:18;86.22;;;40.60;;
76202;SDS011;64985;46.364;17.008;2023-03-03T08:28:25;88.80;;;42.40;;
76202;SDS011;64985;46.364;17.008;2023-03-03T08:31:27;88.28;;;41.78;;
76202;SDS011;64985;46.364;17.008;2023-03-03T08:34:43;87.90;;;41.17;;
76202;SDS011;64985;46.364;17.008;2023-03-03T08:37:45;86.18;;;40.55;;
76202;SDS011;64985;46.364;17.008;2023-03-03T08:40:47;78.65;;;38.03;;
76202;SDS011;64985;46.364;17.008;2023-03-03T08:43:50;73.47;;;36.95;;
76202;SDS011;64985;46.364;17.008;2023-03-03T08:46:52;142.63;;;73.15;;
76202;SDS011;64985;46.364;17.008;2023-03-03T08:49:54;141.18;;;71.20;;
76202;SDS011;64985;46.364;17.008;2023-03-03T08:52:56;100.82;;;48.25;;
76202;SDS011;64985;46.364;17.008;2023-03-03T08:55:59;94.78;;;45.88;;
76202;SDS011;64985;46.364;17.008;2023-03-03T08:59:01;102.50;;;49.20;;
76202;SDS011;64985;46.364;17.008;2023-03-03T09:02:04;108.40;;;49.28;;
76202;SDS011;64985;46.364;17.008;2023-03-03T09:05:07;108.63;;;53.35;;
76202;SDS011;64985;46.364;17.008;2023-03-03T09:08:10;101.10;;;50.13;;
76202;SDS011;64985;46.364;17.008;2023-03-03T09:11:13;95.10;;;45.90;;
76202;SDS011;64985;46.364;17.008;2023-03-03T09:14:20;98.85;;;47.78;;
76202;SDS011;64985;46.364;17.008;2023-03-03T09:17:23;88.05;;;42.28;;
76202;SDS011;64985;46.364;17.008;2023-03-03T09:23:41;81.87;;;38.80;;
76202;SDS011;64985;46.364;17.008;2023-03-03T09:26:47;83.03;;;41.40;;
76202;SDS011;64985;46.364;17.008;2023-03-03T09:29:49;85.82;;;42.70;;
76202;SDS011;64985;46.364;17.008;2023-03-03T09:32:52;93.15;;;46.45;;
76202;SDS011;64985;46.364;17.008;2023-03-03T09:35:58;78.93;;;42.08;;
76202;SDS011;64985;46.364;17.008;2023-03-03T09:39:11;78.18;;;38.63;;
76202;SDS011;64985;46.364;17.008;2023-03-03T10:02:26;69.70;;;36.42;;
76202;SDS011;64985;46.364;17.008;2023-03-03T10:09:14;66.55;;;34.38;;
76202;SDS011;64985;46.364;17.008;2023-03-03T10:12:40;61.03;;;31.63;;
76202;SDS011;64985;46.364;17.008;2023-03-03T10:15:52;65.38;;;35.20;;
76202;SDS011;64985;46.364;17.008;2023-03-03T10:25:39;55.67;;;30.05;;
76202;SDS011;64985;46.364;17.008;2023-03-03T10:32:11;50.90;;;27.85;;
76202;SDS011;64985;46.364;17.008;2023-03-03T10:38:49;49.20;;;28.90;;
76202;SDS011;64985;46.364;17.008;2023-03-03T11:33:39;50.45;;;28.33;;
76202;SDS011;64985;46.364;17.008;2023-03-03T11:37:15;48.15;;;26.20;;
76202;SDS011;64985;46.364;17.008;2023-03-03T11:43:56;41.03;;;24.42;;
76202;SDS011;64985;46.364;17.008;2023-03-03T11:50:54;52.67;;;29.00;;
76202;SDS011;64985;46.364;17.008;2023-03-03T11:54:23;45.97;;;25.40;;
76202;SDS011;64985;46.364;17.008;2023-03-03T11:57:42;72.07;;;42.00;;
76202;SDS011;64985;46.364;17.008;2023-03-03T12:04:14;39.53;;;22.58;;
76202;SDS011;64985;46.364;17.008;2023-03-03T12:17:34;33.15;;;19.55;;
76202;SDS011;64985;46.364;17.008;2023-03-03T12:27:51;33.25;;;18.42;;
76202;SDS011;64985;46.364;17.008;2023-03-03T12:34:25;30.50;;;19.42;;
76202;SDS011;64985;46.364;17.008;2023-03-03T12:40:53;32.38;;;20.63;;
76202;SDS011;64985;46.364;17.008;2023-03-03T12:44:14;30.50;;;17.98;;
76202;SDS011;64985;46.364;17.008;2023-03-03T12:47:38;30.80;;;19.08;;
76202;SDS011;64985;46.364;17.008;2023-03-03T12:50:48;34.88;;;19.48;;
76202;SDS011;64985;46.364;17.008;2023-03-03T12:57:43;30.08;;;17.90;;
76202;SDS011;64985;46.364;17.008;2023-03-03T13:04:35;31.63;;;19.23;;
76202;SDS011;64985;46.364;17.008;2023-03-03T13:17:51;33.33;;;18.83;;
76202;SDS011;64985;46.364;17.008;2023-03-03T13:27:47;34.28;;;18.77;;
76202;SDS011;64985;46.364;17.008;2023-03-03T13:30:54;33.45;;;20.23;;
76202;SDS011;64985;46.364;17.008;2023-03-03T13:34:24;39.72;;;22.10;;
76202;SDS011;64985;46.364;17.008;2023-03-03T13:37:31;30.83;;;19.15;;
76202;SDS011;64985;46.364;17.008;2023-03-03T13:40:56;31.38;;;19.00;;
76202;SDS011;64985;46.364;17.008;2023-03-03T13:44:10;33.33;;;19.95;;
76202;SDS011;64985;46.364;17.008;2023-03-03T13:47:30;33.60;;;21.13;;
76202;SDS011;64985;46.364;17.008;2023-03-03T13:55:09;34.92;;;21.83;;
76202;SDS011;64985;46.364;17.008;2023-03-03T14:05:09;35.03;;;20.52;;
76202;SDS011;64985;46.364;17.008;2023-03-03T14:15:43;33.92;;;20.23;;
76202;SDS011;64985;46.364;17.008;2023-03-03T14:18:57;36.35;;;21.42;;
76202;SDS011;64985;46.364;17.008;2023-03-03T14:25:52;44.22;;;25.75;;
76202;SDS011;64985;46.364;17.008;2023-03-03T14:29:15;41.92;;;23.40;;
76202;SDS011;64985;46.364;17.008;2023-03-03T14:32:37;37.05;;;21.92;;
76202;SDS011;64985;46.364;17.008;2023-03-03T14:38:57;36.78;;;21.08;;
76202;SDS011;64985;46.364;17.008;2023-03-03T14:42:01;37.53;;;21.95;;
76202;SDS011;64985;46.364;17.008;2023-03-03T14:46:28;38.80;;;20.80;;
76202;SDS011;64985;46.364;17.008;2023-03-03T14:48:49;35.67;;;19.85;;
76202;SDS011;64985;46.364;17.008;2023-03-03T14:51:52;33.38;;;19.83;;
76202;SDS011;64985;46.364;17.008;2023-03-03T14:55:02;33.95;;;20.83;;
76202;SDS011;64985;46.364;17.008;2023-03-03T14:58:39;33.90;;;19.92;;
76202;SDS011;64985;46.364;17.008;2023-03-03T15:01:42;33.47;;;19.98;;
76202;SDS011;64985;46.364;17.008;2023-03-03T15:04:46;36.13;;;21.00;;
76202;SDS011;64985;46.364;17.008;2023-03-03T15:07:53;35.10;;;20.30;;
76202;SDS011;64985;46.364;17.008;2023-03-03T15:10:57;33.40;;;19.85;;
76202;SDS011;64985;46.364;17.008;2023-03-03T15:14:15;38.58;;;22.15;;
76202;SDS011;64985;46.364;17.008;2023-03-03T15:27:03;37.72;;;22.05;;
76202;SDS011;64985;46.364;17.008;2023-03-03T15:40:26;38.40;;;22.48;;
76202;SDS011;64985;46.364;17.008;2023-03-03T15:43:39;39.03;;;22.73;;
76202;SDS011;64985;46.364;17.008;2023-03-03T15:59:43;44.53;;;24.13;;
76202;SDS011;64985;46.364;17.008;2023-03-03T16:02:53;40.90;;;23.55;;
76202;SDS011;64985;46.364;17.008;2023-03-03T16:06:04;38.58;;;22.83;;
76202;SDS011;64985;46.364;17.008;2023-03-03T16:15:44;36.17;;;21.58;;
76202;SDS011;64985;46.364;17.008;2023-03-03T16:19:19;39.10;;;21.38;;
76202;SDS011;64985;46.364;17.008;2023-03-03T16:33:05;41.53;;;22.17;;
76202;SDS011;64985;46.364;17.008;2023-03-03T16:36:02;38.03;;;21.63;;
76202;SDS011;64985;46.364;17.008;2023-03-03T16:42:51;45.03;;;23.35;;
76202;SDS011;64985;46.364;17.008;2023-03-03T16:49:47;46.72;;;24.65;;
76202;SDS011;64985;46.364;17.008;2023-03-03T17:00:33;46.70;;;24.35;;
76202;SDS011;64985;46.364;17.008;2023-03-03T17:07:08;45.92;;;25.42;;
76202;SDS011;64985;46.364;17.008;2023-03-03T17:20:16;41.72;;;22.80;;
76202;SDS011;64985;46.364;17.008;2023-03-03T17:30:19;87.82;;;41.35;;
76202;SDS011;64985;46.364;17.008;2023-03-03T17:47:25;68.32;;;34.17;;
76202;SDS011;64985;46.364;17.008;2023-03-03T18:00:47;60.50;;;29.77;;
76202;SDS011;64985;46.364;17.008;2023-03-03T18:14:00;57.55;;;27.58;;
76202;SDS011;64985;46.364;17.008;2023-03-03T18:23:45;54.38;;;26.20;;
76202;SDS011;64985;46.364;17.008;2023-03-03T18:26:49;57.05;;;28.20;;
76202;SDS011;64985;46.364;17.008;2023-03-03T18:30:14;60.45;;;26.77;;
76202;SDS011;64985;46.364;17.008;2023-03-03T18:37:09;52.92;;;25.60;;
76202;SDS011;64985;46.364;17.008;2023-03-03T18:40:15;57.92;;;27.67;;
76202;SDS011;64985;46.364;17.008;2023-03-03T18:46:45;48.15;;;24.25;;
76202;SDS011;64985;46.364;17.008;2023-03-03T18:59:48;49.67;;;24.08;;
76202;SDS011;64985;46.364;17.008;2023-03-03T19:02:57;48.80;;;22.98;;
76202;SDS011;64985;46.364;17.008;2023-03-03T19:06:01;54.20;;;24.77;;
76202;SDS011;64985;46.364;17.008;2023-03-03T19:09:10;47.90;;;22.67;;
76202;SDS011;64985;46.364;17.008;2023-03-03T19:12:24;64.47;;;28.98;;
76202;SDS011;64985;46.364;17.008;2023-03-03T19:15:49;62.33;;;27.27;;
76202;SDS011;64985;46.364;17.008;2023-03-03T19:18:58;61.13;;;25.83;;
76202;SDS011;64985;46.364;17.008;2023-03-03T19:22:23;65.55;;;29.02;;
76202;SDS011;64985;46.364;17.008;2023-03-03T19:25:28;72.60;;;30.65;;
76202;SDS011;64985;46.364;17.008;2023-03-03T19:28:35;86.32;;;35.05;;
76202;SDS011;64985;46.364;17.008;2023-03-03T19:34:56;66.00;;;29.15;;
76202;SDS011;64985;46.364;17.008;2023-03-03T19:38:24;69.72;;;29.25;;
76202;SDS011;64985;46.364;17.008;2023-03-03T19:41:44;69.00;;;28.70;;
76202;SDS011;64985;46.364;17.008;2023-03-03T19:51:43;74.80;;;33.28;;
76202;SDS011;64985;46.364;17.008;2023-03-03T20:01:47;83.13;;;33.30;;
76202;SDS011;64985;46.364;17.008;2023-03-03T20:19:01;81.35;;;29.90;;
76202;SDS011;64985;46.364;17.008;2023-03-03T20:26:00;68.13;;;30.30;;
76202;SDS011;64985;46.364;17.008;2023-03-03T20:32:34;233.30;;;34.92;;
76202;SDS011;64985;46.364;17.008;2023-03-03T20:42:16;70.05;;;31.40;;
76202;SDS011;64985;46.364;17.008;2023-03-03T20:45:49;83.10;;;35.58;;
76202;SDS011;64985;46.364;17.008;2023-03-03T20:49:04;113.18;;;44.45;;
76202;SDS011;64985;46.364;17.008;2023-03-03T20:52:15;145.07;;;55.60;;
76202;SDS011;64985;46.364;17.008;2023-03-03T21:05:16;91.85;;;32.05;;
76202;SDS011;64985;46.364;17.008;2023-03-03T21:08:39;71.78;;;27.67;;
76202;SDS011;64985;46.364;17.008;2023-03-03T21:11:42;87.53;;;31.75;;
76202;SDS011;64985;46.364;17.008;2023-03-03T21:14:46;113.95;;;36.35;;
76202;SDS011;64985;46.364;17.008;2023-03-03T21:18:17;94.45;;;36.72;;
76202;SDS011;64985;46.364;17.008;2023-03-03T21:21:23;76.82;;;34.55;;
76202;SDS011;64985;46.364;17.008;2023-03-03T21:24:48;65.93;;;29.88;;
76202;SDS011;64985;46.364;17.008;2023-03-03T21:27:51;93.20;;;44.53;;
76202;SDS011;64985;46.364;17.008;2023-03-03T21:31:13;81.53;;;39.72;;
76202;SDS011;64985;46.364;17.008;2023-03-03T21:41:04;89.68;;;33.40;;
76202;SDS011;64985;46.364;17.008;2023-03-03T21:44:50;87.65;;;35.42;;
76202;SDS011;64985;46.364;17.008;2023-03-03T21:47:36;71.97;;;32.30;;
76202;SDS011;64985;46.364;17.008;2023-03-03T21:50:38;83.18;;;36.30;;
76202;SDS011;64985;46.364;17.008;2023-03-03T21:53:43;84.63;;;32.13;;
76202;SDS011;64985;46.364;17.008;2023-03-03T21:56:46;126.50;;;25.73;;
76202;SDS011;64985;46.364;17.008;2023-03-03T21:59:50;149.20;;;25.23;;
76202;SDS011;64985;46.364;17.008;2023-03-03T22:02:53;141.05;;;26.00;;
76202;SDS011;64985;46.364;17.008;2023-03-03T22:05:55;109.40;;;27.08;;
76202;SDS011;64985;46.364;17.008;2023-03-03T22:08:58;106.82;;;24.77;;
76202;SDS011;64985;46.364;17.008;2023-03-03T22:12:00;121.20;;;24.92;;
76202;SDS011;64985;46.364;17.008;2023-03-03T22:15:03;66.18;;;27.08;;
76202;SDS011;64985;46.364;17.008;2023-03-03T22:18:06;74.78;;;31.65;;
76202;SDS011;64985;46.364;17.008;2023-03-03T22:21:08;66.57;;;29.08;;
76202;SDS011;64985;46.364;17.008;2023-03-03T22:24:10;78.18;;;31.05;;
76202;SDS011;64985;46.364;17.008;2023-03-03T22:27:12;106.57;;;36.78;;
76202;SDS011;64985;46.364;17.008;2023-03-03T22:30:15;77.38;;;33.13;;
76202;SDS011;64985;46.364;17.008;2023-03-03T22:33:17;95.43;;;36.33;;
76202;SDS011;64985;46.364;17.008;2023-03-03T22:36:19;99.07;;;40.50;;
76202;SDS011;64985;46.364;17.008;2023-03-03T22:39:21;105.38;;;42.38;;
76202;SDS011;64985;46.364;17.008;2023-03-03T22:42:23;84.80;;;34.88;;
76202;SDS011;64985;46.364;17.008;2023-03-03T22:45:26;195.50;;;31.85;;
76202;SDS011;64985;46.364;17.008;2023-03-03T22:48:28;127.80;;;31.02;;
76202;SDS011;64985;46.364;17.008;2023-03-03T22:51:31;130.93;;;29.20;;
76202;SDS011;64985;46.364;17.008;2023-03-03T22:54:33;98.63;;;30.63;;
76202;SDS011;64985;46.364;17.008;2023-03-03T22:57:35;74.88;;;28.85;;
76202;SDS011;64985;46.364;17.008;2023-03-03T23:00:38;129.23;;;26.95;;
76202;SDS011;64985;46.364;17.008;2023-03-03T23:03:41;75.35;;;28.85;;
76202;SDS011;64985;46.364;17.008;2023-03-03T23:06:43;97.25;;;33.00;;
76202;SDS011;64985;46.364;17.008;2023-03-03T23:09:45;116.88;;;33.17;;
76202;SDS011;64985;46.364;17.008;2023-03-03T23:12:48;121.53;;;30.75;;
76202;SDS011;64985;46.364;17.008;2023-03-03T23:15:50;79.00;;;30.25;;
76202;SDS011;64985;46.364;17.008;2023-03-03T23:18:52;89.18;;;32.33;;
76202;SDS011;64985;46.364;17.008;2023-03-03T23:21:54;95.13;;;29.38;;
76202;SDS011;64985;46.364;17.008;2023-03-03T23:24:57;71.22;;;30.02;;
76202;SDS011;64985;46.364;17.008;2023-03-03T23:27:59;75.30;;;31.33;;
76202;SDS011;64985;46.364;17.008;2023-03-03T23:31:01;77.57;;;30.50;;
76202;SDS011;64985;46.364;17.008;2023-03-03T23:34:03;67.50;;;29.27;;
76202;SDS011;64985;46.364;17.008;2023-03-03T23:37:06;80.15;;;30.83;;
76202;SDS011;64985;46.364;17.008;2023-03-03T23:40:08;86.38;;;31.02;;
76202;SDS011;64985;46.364;17.008;2023-03-03T23:43:11;80.35;;;30.20;;
76202;SDS011;64985;46.364;17.008;2023-03-03T23:46:14;81.60;;;33.20;;
76202;SDS011;64985;46.364;17.008;2023-03-03T23:49:17;76.07;;;31.30;;
76202;SDS011;64985;46.364;17.008;2023-03-03T23:52:19;72.93;;;30.15;;
76202;SDS011;64985;46.364;17.008;2023-03-03T23:55:21;68.43;;;31.48;;
76202;SDS011;64985;46.364;17.008;2023-03-03T23:58:23;72.38;;;29.80;;
